Terminal Aerodrome Forecast
Issued by NWS

Home | Current Version | Previous Version | Text Only | Print | Product List | Glossary On
Versions: 1 2 3 4 5 6 7 8 9 10 11 12 13
000
FTUS44 KHGX 172320
TAFUTS
TAF
KUTS 172320Z 1800/1824 10005KT P6SM SCT035 BKN045 OVC050
     FM180200 VRB04KT P6SM SCT020 BKN050
     FM180600 VRB04KT 5SM BR SCT015 BKN040
     FM181500 02004KT P6SM SCT040=

USA.gov is the U.S. government's official web portal to all federal, state and local government web resources and services.